sensor_id;sensor_type;location;lat;lon;timestamp;P1;durP1;ratioP1;P2;durP2;ratioP2
1887;SDS011;944;51.574;6.980;2023-02-04T00:01:38;33.97;;;5.57;;
1887;SDS011;944;51.574;6.980;2023-02-04T00:04:05;32.87;;;4.77;;
1887;SDS011;944;51.574;6.980;2023-02-04T00:06:32;29.80;;;5.53;;
1887;SDS011;944;51.574;6.980;2023-02-04T00:08:59;38.90;;;5.63;;
1887;SDS011;944;51.574;6.980;2023-02-04T00:11:26;39.27;;;6.10;;
1887;SDS011;944;51.574;6.980;2023-02-04T00:29:41;29.73;;;5.30;;
1887;SDS011;944;51.574;6.980;2023-02-04T00:35:52;32.87;;;5.80;;
1887;SDS011;944;51.574;6.980;2023-02-04T00:38:19;39.80;;;4.33;;
1887;SDS011;944;51.574;6.980;2023-02-04T00:40:47;38.73;;;5.20;;
1887;SDS011;944;51.574;6.980;2023-02-04T00:43:13;25.70;;;5.50;;
1887;SDS011;944;51.574;6.980;2023-02-04T00:45:42;29.90;;;4.80;;
1887;SDS011;944;51.574;6.980;2023-02-04T00:48:09;32.43;;;6.10;;
1887;SDS011;944;51.574;6.980;2023-02-04T00:50:36;28.50;;;4.73;;
1887;SDS011;944;51.574;6.980;2023-02-04T00:53:03;38.97;;;5.73;;
1887;SDS011;944;51.574;6.980;2023-02-04T00:55:30;23.90;;;5.13;;
1887;SDS011;944;51.574;6.980;2023-02-04T00:57:58;27.77;;;4.57;;
1887;SDS011;944;51.574;6.980;2023-02-04T01:00:25;26.13;;;4.50;;
1887;SDS011;944;51.574;6.980;2023-02-04T01:02:53;33.00;;;5.10;;
1887;SDS011;944;51.574;6.980;2023-02-04T01:05:20;41.23;;;5.60;;
1887;SDS011;944;51.574;6.980;2023-02-04T01:07:47;47.17;;;5.70;;
1887;SDS011;944;51.574;6.980;2023-02-04T01:10:14;27.57;;;4.60;;
1887;SDS011;944;51.574;6.980;2023-02-04T01:12:41;27.10;;;5.00;;
1887;SDS011;944;51.574;6.980;2023-02-04T01:15:09;27.83;;;4.50;;
1887;SDS011;944;51.574;6.980;2023-02-04T01:17:36;23.30;;;4.83;;
1887;SDS011;944;51.574;6.980;2023-02-04T01:20:05;24.33;;;5.03;;
1887;SDS011;944;51.574;6.980;2023-02-04T01:22:33;34.97;;;4.87;;
1887;SDS011;944;51.574;6.980;2023-02-04T01:25:00;31.60;;;5.00;;
1887;SDS011;944;51.574;6.980;2023-02-04T01:27:27;41.23;;;5.90;;
1887;SDS011;944;51.574;6.980;2023-02-04T01:29:54;44.60;;;4.80;;
1887;SDS011;944;51.574;6.980;2023-02-04T01:32:21;29.33;;;5.30;;
1887;SDS011;944;51.574;6.980;2023-02-04T01:34:48;36.70;;;6.20;;
1887;SDS011;944;51.574;6.980;2023-02-04T01:37:17;32.97;;;6.13;;
1887;SDS011;944;51.574;6.980;2023-02-04T01:39:44;17.13;;;5.07;;
1887;SDS011;944;51.574;6.980;2023-02-04T01:42:11;39.13;;;6.50;;
1887;SDS011;944;51.574;6.980;2023-02-04T01:44:38;36.50;;;5.33;;
1887;SDS011;944;51.574;6.980;2023-02-04T01:47:05;42.73;;;5.60;;
1887;SDS011;944;51.574;6.980;2023-02-04T01:49:38;24.57;;;5.10;;
1887;SDS011;944;51.574;6.980;2023-02-04T01:52:05;25.67;;;4.63;;
1887;SDS011;944;51.574;6.980;2023-02-04T01:54:34;48.40;;;6.50;;
1887;SDS011;944;51.574;6.980;2023-02-04T01:57:01;41.73;;;5.50;;
1887;SDS011;944;51.574;6.980;2023-02-04T01:59:31;30.17;;;5.40;;
1887;SDS011;944;51.574;6.980;2023-02-04T02:01:59;29.67;;;5.60;;
1887;SDS011;944;51.574;6.980;2023-02-04T02:04:27;38.07;;;5.87;;
1887;SDS011;944;51.574;6.980;2023-02-04T02:06:57;37.47;;;5.20;;
1887;SDS011;944;51.574;6.980;2023-02-04T02:09:30;29.10;;;4.63;;
1887;SDS011;944;51.574;6.980;2023-02-04T02:12:00;33.57;;;6.70;;
1887;SDS011;944;51.574;6.980;2023-02-04T02:14:29;38.73;;;5.50;;
1887;SDS011;944;51.574;6.980;2023-02-04T02:16:55;30.60;;;4.73;;
1887;SDS011;944;51.574;6.980;2023-02-04T02:19:25;28.80;;;6.00;;
1887;SDS011;944;51.574;6.980;2023-02-04T02:21:58;47.97;;;6.50;;
1887;SDS011;944;51.574;6.980;2023-02-04T02:24:33;41.23;;;5.77;;
1887;SDS011;944;51.574;6.980;2023-02-04T02:27:00;33.20;;;6.17;;
1887;SDS011;944;51.574;6.980;2023-02-04T02:29:32;40.10;;;5.97;;
1887;SDS011;944;51.574;6.980;2023-02-04T02:31:59;49.33;;;5.60;;
1887;SDS011;944;51.574;6.980;2023-02-04T02:34:27;39.70;;;5.77;;
1887;SDS011;944;51.574;6.980;2023-02-04T02:36:54;32.80;;;5.47;;
1887;SDS011;944;51.574;6.980;2023-02-04T02:39:23;40.70;;;5.50;;
1887;SDS011;944;51.574;6.980;2023-02-04T02:41:51;31.10;;;5.97;;
1887;SDS011;944;51.574;6.980;2023-02-04T02:44:19;39.77;;;5.17;;
1887;SDS011;944;51.574;6.980;2023-02-04T02:46:46;40.13;;;7.57;;
1887;SDS011;944;51.574;6.980;2023-02-04T02:49:14;35.83;;;5.20;;
1887;SDS011;944;51.574;6.980;2023-02-04T02:51:43;29.93;;;5.77;;
1887;SDS011;944;51.574;6.980;2023-02-04T02:54:17;44.40;;;5.13;;
1887;SDS011;944;51.574;6.980;2023-02-04T02:56:48;47.07;;;5.00;;
1887;SDS011;944;51.574;6.980;2023-02-04T02:59:16;32.27;;;4.93;;
1887;SDS011;944;51.574;6.980;2023-02-04T03:01:44;23.10;;;4.67;;
1887;SDS011;944;51.574;6.980;2023-02-04T03:04:17;23.57;;;4.97;;
1887;SDS011;944;51.574;6.980;2023-02-04T03:06:45;43.53;;;5.33;;
1887;SDS011;944;51.574;6.980;2023-02-04T03:09:12;30.47;;;5.10;;
1887;SDS011;944;51.574;6.980;2023-02-04T03:11:39;40.77;;;6.50;;
1887;SDS011;944;51.574;6.980;2023-02-04T03:14:06;23.63;;;3.90;;
1887;SDS011;944;51.574;6.980;2023-02-04T03:16:34;33.20;;;5.23;;
1887;SDS011;944;51.574;6.980;2023-02-04T03:19:04;31.53;;;5.30;;
1887;SDS011;944;51.574;6.980;2023-02-04T03:21:33;30.87;;;4.90;;
1887;SDS011;944;51.574;6.980;2023-02-04T03:24:00;26.50;;;5.10;;
1887;SDS011;944;51.574;6.980;2023-02-04T03:26:28;35.93;;;5.30;;
1887;SDS011;944;51.574;6.980;2023-02-04T03:28:55;28.77;;;5.00;;
1887;SDS011;944;51.574;6.980;2023-02-04T03:31:22;43.80;;;4.80;;
1887;SDS011;944;51.574;6.980;2023-02-04T03:33:50;29.80;;;5.50;;
1887;SDS011;944;51.574;6.980;2023-02-04T03:36:17;37.53;;;5.60;;
1887;SDS011;944;51.574;6.980;2023-02-04T03:38:44;34.70;;;5.10;;
1887;SDS011;944;51.574;6.980;2023-02-04T03:41:10;38.17;;;5.07;;
1887;SDS011;944;51.574;6.980;2023-02-04T03:43:37;37.80;;;5.50;;
1887;SDS011;944;51.574;6.980;2023-02-04T03:46:04;51.87;;;5.67;;
1887;SDS011;944;51.574;6.980;2023-02-04T03:48:31;37.40;;;5.10;;
1887;SDS011;944;51.574;6.980;2023-02-04T03:50:59;18.77;;;5.63;;
1887;SDS011;944;51.574;6.980;2023-02-04T03:53:26;37.37;;;5.60;;
1887;SDS011;944;51.574;6.980;2023-02-04T03:55:56;25.83;;;5.20;;
1887;SDS011;944;51.574;6.980;2023-02-04T03:58:23;29.60;;;5.00;;
1887;SDS011;944;51.574;6.980;2023-02-04T04:00:50;34.80;;;4.70;;
1887;SDS011;944;51.574;6.980;2023-02-04T04:03:17;46.00;;;5.63;;
1887;SDS011;944;51.574;6.980;2023-02-04T04:05:44;34.10;;;5.27;;
1887;SDS011;944;51.574;6.980;2023-02-04T04:08:12;55.97;;;5.83;;
1887;SDS011;944;51.574;6.980;2023-02-04T04:10:39;39.97;;;6.70;;
1887;SDS011;944;51.574;6.980;2023-02-04T04:13:06;36.83;;;5.50;;
1887;SDS011;944;51.574;6.980;2023-02-04T04:15:33;36.03;;;5.67;;
1887;SDS011;944;51.574;6.980;2023-02-04T04:18:00;33.57;;;5.50;;
1887;SDS011;944;51.574;6.980;2023-02-04T04:20:28;51.70;;;5.70;;
1887;SDS011;944;51.574;6.980;2023-02-04T04:22:55;29.07;;;4.87;;
1887;SDS011;944;51.574;6.980;2023-02-04T04:25:23;33.23;;;5.60;;
1887;SDS011;944;51.574;6.980;2023-02-04T04:27:50;28.27;;;5.37;;
1887;SDS011;944;51.574;6.980;2023-02-04T04:30:17;44.60;;;5.97;;
1887;SDS011;944;51.574;6.980;2023-02-04T04:32:44;34.30;;;5.40;;
1887;SDS011;944;51.574;6.980;2023-02-04T04:35:11;32.27;;;6.17;;
1887;SDS011;944;51.574;6.980;2023-02-04T04:37:38;38.70;;;5.37;;
1887;SDS011;944;51.574;6.980;2023-02-04T04:40:05;27.60;;;4.43;;
1887;SDS011;944;51.574;6.980;2023-02-04T04:42:35;34.00;;;5.70;;
1887;SDS011;944;51.574;6.980;2023-02-04T04:45:02;23.03;;;3.90;;
1887;SDS011;944;51.574;6.980;2023-02-04T04:47:31;39.37;;;6.30;;
1887;SDS011;944;51.574;6.980;2023-02-04T04:49:58;35.47;;;5.93;;
1887;SDS011;944;51.574;6.980;2023-02-04T04:52:25;36.03;;;5.43;;
1887;SDS011;944;51.574;6.980;2023-02-04T04:54:52;37.00;;;5.30;;
1887;SDS011;944;51.574;6.980;2023-02-04T04:57:18;29.70;;;6.00;;
1887;SDS011;944;51.574;6.980;2023-02-04T04:59:47;31.80;;;5.30;;
1887;SDS011;944;51.574;6.980;2023-02-04T05:02:14;62.00;;;5.77;;
1887;SDS011;944;51.574;6.980;2023-02-04T05:04:41;42.77;;;5.90;;
1887;SDS011;944;51.574;6.980;2023-02-04T05:07:07;30.13;;;4.27;;
1887;SDS011;944;51.574;6.980;2023-02-04T05:09:34;28.83;;;4.93;;
1887;SDS011;944;51.574;6.980;2023-02-04T05:12:01;29.00;;;5.10;;
1887;SDS011;944;51.574;6.980;2023-02-04T05:14:28;35.60;;;5.13;;
1887;SDS011;944;51.574;6.980;2023-02-04T05:16:56;28.77;;;5.30;;
1887;SDS011;944;51.574;6.980;2023-02-04T05:19:23;48.23;;;4.77;;
1887;SDS011;944;51.574;6.980;2023-02-04T05:21:50;32.43;;;5.77;;
1887;SDS011;944;51.574;6.980;2023-02-04T05:24:19;38.70;;;5.83;;
1887;SDS011;944;51.574;6.980;2023-02-04T05:26:46;36.77;;;5.77;;
1887;SDS011;944;51.574;6.980;2023-02-04T05:29:13;28.20;;;5.47;;
1887;SDS011;944;51.574;6.980;2023-02-04T05:31:39;33.93;;;5.00;;
1887;SDS011;944;51.574;6.980;2023-02-04T05:34:08;58.57;;;5.97;;
1887;SDS011;944;51.574;6.980;2023-02-04T05:36:34;45.57;;;6.30;;
1887;SDS011;944;51.574;6.980;2023-02-04T05:39:01;41.97;;;5.43;;
1887;SDS011;944;51.574;6.980;2023-02-04T05:41:29;45.43;;;6.63;;
1887;SDS011;944;51.574;6.980;2023-02-04T05:43:55;42.47;;;6.20;;
1887;SDS011;944;51.574;6.980;2023-02-04T05:46:22;49.93;;;5.50;;
1887;SDS011;944;51.574;6.980;2023-02-04T05:48:49;47.17;;;5.57;;
1887;SDS011;944;51.574;6.980;2023-02-04T05:51:18;30.73;;;5.13;;
1887;SDS011;944;51.574;6.980;2023-02-04T05:53:44;43.50;;;5.70;;
1887;SDS011;944;51.574;6.980;2023-02-04T05:56:11;38.97;;;6.40;;
1887;SDS011;944;51.574;6.980;2023-02-04T05:58:38;37.97;;;5.20;;
1887;SDS011;944;51.574;6.980;2023-02-04T06:01:05;37.20;;;6.30;;
1887;SDS011;944;51.574;6.980;2023-02-04T06:03:32;48.27;;;6.00;;
1887;SDS011;944;51.574;6.980;2023-02-04T06:05:59;46.90;;;6.00;;
1887;SDS011;944;51.574;6.980;2023-02-04T06:08:28;40.37;;;5.60;;
1887;SDS011;944;51.574;6.980;2023-02-04T06:10:57;32.20;;;5.10;;
1887;SDS011;944;51.574;6.980;2023-02-04T06:13:23;35.30;;;4.83;;
1887;SDS011;944;51.574;6.980;2023-02-04T06:15:50;34.77;;;5.77;;
1887;SDS011;944;51.574;6.980;2023-02-04T06:18:17;39.70;;;5.60;;
1887;SDS011;944;51.574;6.980;2023-02-04T06:20:44;39.50;;;6.07;;
1887;SDS011;944;51.574;6.980;2023-02-04T06:23:11;30.77;;;5.13;;
1887;SDS011;944;51.574;6.980;2023-02-04T06:25:40;31.00;;;5.50;;
1887;SDS011;944;51.574;6.980;2023-02-04T06:28:08;45.07;;;6.77;;
1887;SDS011;944;51.574;6.980;2023-02-04T06:30:35;31.17;;;5.67;;
1887;SDS011;944;51.574;6.980;2023-02-04T06:33:03;35.47;;;5.33;;
1887;SDS011;944;51.574;6.980;2023-02-04T06:35:29;40.73;;;5.30;;
1887;SDS011;944;51.574;6.980;2023-02-04T06:37:56;35.37;;;5.10;;
1887;SDS011;944;51.574;6.980;2023-02-04T06:40:23;41.17;;;5.70;;
1887;SDS011;944;51.574;6.980;2023-02-04T06:42:51;43.60;;;5.93;;
1887;SDS011;944;51.574;6.980;2023-02-04T06:45:18;38.33;;;6.40;;
1887;SDS011;944;51.574;6.980;2023-02-04T06:47:45;37.20;;;4.87;;
1887;SDS011;944;51.574;6.980;2023-02-04T06:50:12;47.77;;;5.50;;
1887;SDS011;944;51.574;6.980;2023-02-04T06:52:42;45.27;;;6.30;;
1887;SDS011;944;51.574;6.980;2023-02-04T06:55:10;46.27;;;5.73;;
1887;SDS011;944;51.574;6.980;2023-02-04T06:57:37;30.63;;;5.33;;
1887;SDS011;944;51.574;6.980;2023-02-04T07:00:07;36.60;;;5.40;;
1887;SDS011;944;51.574;6.980;2023-02-04T07:02:52;42.80;;;7.00;;
1887;SDS011;944;51.574;6.980;2023-02-04T07:09:03;59.27;;;7.87;;
1887;SDS011;944;51.574;6.980;2023-02-04T07:11:32;50.93;;;6.70;;
1887;SDS011;944;51.574;6.980;2023-02-04T07:13:59;40.80;;;5.63;;
1887;SDS011;944;51.574;6.980;2023-02-04T07:16:27;33.13;;;5.30;;
1887;SDS011;944;51.574;6.980;2023-02-04T07:18:54;39.80;;;5.83;;
1887;SDS011;944;51.574;6.980;2023-02-04T07:21:21;45.53;;;6.33;;
1887;SDS011;944;51.574;6.980;2023-02-04T07:23:48;42.47;;;6.63;;
1887;SDS011;944;51.574;6.980;2023-02-04T07:26:15;36.10;;;8.00;;
1887;SDS011;944;51.574;6.980;2023-02-04T07:28:42;55.13;;;6.30;;
1887;SDS011;944;51.574;6.980;2023-02-04T07:34:51;33.83;;;7.07;;
1887;SDS011;944;51.574;6.980;2023-02-04T07:37:18;30.67;;;5.83;;
1887;SDS011;944;51.574;6.980;2023-02-04T07:39:45;33.10;;;5.83;;
1887;SDS011;944;51.574;6.980;2023-02-04T07:42:12;35.57;;;5.30;;
1887;SDS011;944;51.574;6.980;2023-02-04T07:44:39;30.90;;;6.23;;
1887;SDS011;944;51.574;6.980;2023-02-04T07:47:05;43.57;;;6.83;;
1887;SDS011;944;51.574;6.980;2023-02-04T07:49:32;41.80;;;6.63;;
1887;SDS011;944;51.574;6.980;2023-02-04T07:52:01;48.67;;;6.93;;
1887;SDS011;944;51.574;6.980;2023-02-04T07:54:27;70.10;;;6.30;;
1887;SDS011;944;51.574;6.980;2023-02-04T07:56:54;52.73;;;6.23;;
1887;SDS011;944;51.574;6.980;2023-02-04T07:59:21;50.40;;;6.67;;
1887;SDS011;944;51.574;6.980;2023-02-04T08:01:48;49.50;;;6.93;;
1887;SDS011;944;51.574;6.980;2023-02-04T08:04:16;48.93;;;6.70;;
1887;SDS011;944;51.574;6.980;2023-02-04T08:06:43;67.83;;;7.60;;
1887;SDS011;944;51.574;6.980;2023-02-04T08:09:11;43.17;;;8.03;;
1887;SDS011;944;51.574;6.980;2023-02-04T08:15:19;37.90;;;7.73;;
1887;SDS011;944;51.574;6.980;2023-02-04T08:17:46;58.57;;;8.10;;
1887;SDS011;944;51.574;6.980;2023-02-04T08:23:53;37.33;;;5.90;;
1887;SDS011;944;51.574;6.980;2023-02-04T08:26:25;39.93;;;6.50;;
1887;SDS011;944;51.574;6.980;2023-02-04T08:28:52;39.80;;;6.00;;
1887;SDS011;944;51.574;6.980;2023-02-04T08:31:32;41.13;;;6.80;;
1887;SDS011;944;51.574;6.980;2023-02-04T08:34:08;44.33;;;6.83;;
1887;SDS011;944;51.574;6.980;2023-02-04T08:36:54;45.53;;;5.70;;
1887;SDS011;944;51.574;6.980;2023-02-04T08:39:44;51.73;;;7.27;;
1887;SDS011;944;51.574;6.980;2023-02-04T08:42:27;51.10;;;7.80;;
1887;SDS011;944;51.574;6.980;2023-02-04T08:49:06;50.50;;;8.00;;
1887;SDS011;944;51.574;6.980;2023-02-04T08:52:13;28.43;;;6.33;;
1887;SDS011;944;51.574;6.980;2023-02-04T09:02:42;40.53;;;5.70;;
1887;SDS011;944;51.574;6.980;2023-02-04T09:05:10;45.50;;;6.20;;
1887;SDS011;944;51.574;6.980;2023-02-04T09:07:38;47.17;;;6.37;;
1887;SDS011;944;51.574;6.980;2023-02-04T09:10:05;36.67;;;6.37;;
1887;SDS011;944;51.574;6.980;2023-02-04T09:12:33;56.73;;;7.40;;
1887;SDS011;944;51.574;6.980;2023-02-04T09:15:00;44.43;;;7.23;;
1887;SDS011;944;51.574;6.980;2023-02-04T09:17:31;47.00;;;6.13;;
1887;SDS011;944;51.574;6.980;2023-02-04T09:19:59;53.33;;;6.40;;
1887;SDS011;944;51.574;6.980;2023-02-04T09:22:26;38.67;;;6.40;;
1887;SDS011;944;51.574;6.980;2023-02-04T09:25:19;39.27;;;7.37;;
1887;SDS011;944;51.574;6.980;2023-02-04T09:27:55;31.57;;;5.60;;
1887;SDS011;944;51.574;6.980;2023-02-04T09:30:46;35.87;;;6.50;;
1887;SDS011;944;51.574;6.980;2023-02-04T09:33:24;45.17;;;7.60;;
1887;SDS011;944;51.574;6.980;2023-02-04T09:35:51;53.77;;;8.20;;
1887;SDS011;944;51.574;6.980;2023-02-04T09:38:19;54.30;;;7.40;;
1887;SDS011;944;51.574;6.980;2023-02-04T09:40:48;34.83;;;5.97;;
1887;SDS011;944;51.574;6.980;2023-02-04T09:43:20;51.37;;;6.80;;
1887;SDS011;944;51.574;6.980;2023-02-04T09:45:50;53.53;;;6.97;;
1887;SDS011;944;51.574;6.980;2023-02-04T09:48:18;51.27;;;7.10;;
1887;SDS011;944;51.574;6.980;2023-02-04T09:50:48;57.10;;;7.73;;
1887;SDS011;944;51.574;6.980;2023-02-04T09:53:16;38.50;;;6.10;;
1887;SDS011;944;51.574;6.980;2023-02-04T09:55:46;36.37;;;7.70;;
1887;SDS011;944;51.574;6.980;2023-02-04T09:58:15;53.37;;;8.20;;
1887;SDS011;944;51.574;6.980;2023-02-04T10:00:45;50.33;;;6.57;;
1887;SDS011;944;51.574;6.980;2023-02-04T10:03:14;35.60;;;6.73;;
1887;SDS011;944;51.574;6.980;2023-02-04T10:05:45;58.37;;;7.17;;
1887;SDS011;944;51.574;6.980;2023-02-04T10:08:13;46.73;;;6.67;;
1887;SDS011;944;51.574;6.980;2023-02-04T10:14:25;44.60;;;6.40;;
1887;SDS011;944;51.574;6.980;2023-02-04T10:17:06;58.40;;;7.10;;
1887;SDS011;944;51.574;6.980;2023-02-04T10:19:35;39.23;;;5.90;;
1887;SDS011;944;51.574;6.980;2023-02-04T10:22:06;58.63;;;7.90;;
1887;SDS011;944;51.574;6.980;2023-02-04T10:24:42;59.23;;;7.50;;
1887;SDS011;944;51.574;6.980;2023-02-04T10:27:10;56.17;;;7.70;;
1887;SDS011;944;51.574;6.980;2023-02-04T10:29:40;48.87;;;7.07;;
1887;SDS011;944;51.574;6.980;2023-02-04T10:32:28;54.73;;;7.00;;
1887;SDS011;944;51.574;6.980;2023-02-04T10:34:58;51.57;;;8.33;;
1887;SDS011;944;51.574;6.980;2023-02-04T10:37:29;55.30;;;9.60;;
1887;SDS011;944;51.574;6.980;2023-02-04T10:39:57;54.23;;;6.90;;
1887;SDS011;944;51.574;6.980;2023-02-04T10:42:24;45.77;;;8.80;;
1887;SDS011;944;51.574;6.980;2023-02-04T10:44:53;45.30;;;7.53;;
1887;SDS011;944;51.574;6.980;2023-02-04T10:47:21;46.30;;;7.27;;
1887;SDS011;944;51.574;6.980;2023-02-04T10:49:52;50.00;;;7.73;;
1887;SDS011;944;51.574;6.980;2023-02-04T10:52:22;40.37;;;7.77;;
1887;SDS011;944;51.574;6.980;2023-02-04T10:58:40;41.77;;;8.07;;
1887;SDS011;944;51.574;6.980;2023-02-04T11:01:14;48.00;;;7.17;;
1887;SDS011;944;51.574;6.980;2023-02-04T11:07:25;67.23;;;10.00;;
1887;SDS011;944;51.574;6.980;2023-02-04T11:09:55;40.80;;;8.20;;
1887;SDS011;944;51.574;6.980;2023-02-04T11:12:35;57.27;;;10.13;;
1887;SDS011;944;51.574;6.980;2023-02-04T11:15:05;54.40;;;10.00;;
1887;SDS011;944;51.574;6.980;2023-02-04T11:17:57;50.20;;;9.50;;
1887;SDS011;944;51.574;6.980;2023-02-04T11:20:29;58.67;;;9.50;;
1887;SDS011;944;51.574;6.980;2023-02-04T11:23:12;56.17;;;10.40;;
1887;SDS011;944;51.574;6.980;2023-02-04T11:26:04;58.53;;;10.50;;
1887;SDS011;944;51.574;6.980;2023-02-04T11:28:43;51.60;;;11.23;;
1887;SDS011;944;51.574;6.980;2023-02-04T11:31:41;50.97;;;11.40;;
1887;SDS011;944;51.574;6.980;2023-02-04T11:34:30;58.40;;;12.07;;
1887;SDS011;944;51.574;6.980;2023-02-04T11:37:13;48.30;;;10.83;;
1887;SDS011;944;51.574;6.980;2023-02-04T11:39:52;51.50;;;11.03;;
1887;SDS011;944;51.574;6.980;2023-02-04T11:42:25;62.67;;;10.20;;
1887;SDS011;944;51.574;6.980;2023-02-04T11:44:59;56.33;;;13.90;;
1887;SDS011;944;51.574;6.980;2023-02-04T11:47:33;55.27;;;11.07;;
1887;SDS011;944;51.574;6.980;2023-02-04T11:50:04;54.93;;;10.83;;
1887;SDS011;944;51.574;6.980;2023-02-04T11:52:41;61.03;;;8.97;;
1887;SDS011;944;51.574;6.980;2023-02-04T11:58:44;45.83;;;9.00;;
1887;SDS011;944;51.574;6.980;2023-02-04T12:04:23;43.30;;;8.40;;
1887;SDS011;944;51.574;6.980;2023-02-04T12:06:57;50.53;;;9.97;;
1887;SDS011;944;51.574;6.980;2023-02-04T12:09:25;45.03;;;9.90;;
1887;SDS011;944;51.574;6.980;2023-02-04T12:11:55;34.60;;;9.50;;
1887;SDS011;944;51.574;6.980;2023-02-04T12:14:30;36.43;;;8.17;;
1887;SDS011;944;51.574;6.980;2023-02-04T12:16:58;43.60;;;9.00;;
1887;SDS011;944;51.574;6.980;2023-02-04T12:19:25;42.43;;;7.90;;
1887;SDS011;944;51.574;6.980;2023-02-04T12:21:53;42.40;;;7.60;;
1887;SDS011;944;51.574;6.980;2023-02-04T12:24:22;38.70;;;6.70;;
1887;SDS011;944;51.574;6.980;2023-02-04T12:26:51;38.50;;;7.20;;
1887;SDS011;944;51.574;6.980;2023-02-04T12:29:19;45.13;;;7.17;;
1887;SDS011;944;51.574;6.980;2023-02-04T12:31:47;39.37;;;6.67;;
1887;SDS011;944;51.574;6.980;2023-02-04T12:34:14;33.03;;;5.77;;
1887;SDS011;944;51.574;6.980;2023-02-04T12:36:41;33.97;;;6.10;;
1887;SDS011;944;51.574;6.980;2023-02-04T12:39:09;23.90;;;5.33;;
1887;SDS011;944;51.574;6.980;2023-02-04T12:41:36;33.70;;;5.60;;
1887;SDS011;944;51.574;6.980;2023-02-04T12:44:03;32.00;;;5.50;;
1887;SDS011;944;51.574;6.980;2023-02-04T12:46:30;55.63;;;8.00;;
1887;SDS011;944;51.574;6.980;2023-02-04T12:49:00;38.50;;;5.73;;
1887;SDS011;944;51.574;6.980;2023-02-04T12:51:27;43.80;;;6.20;;
1887;SDS011;944;51.574;6.980;2023-02-04T12:57:37;36.20;;;5.77;;
1887;SDS011;944;51.574;6.980;2023-02-04T13:00:04;35.80;;;5.67;;
1887;SDS011;944;51.574;6.980;2023-02-04T13:02:32;44.57;;;5.73;;
1887;SDS011;944;51.574;6.980;2023-02-04T13:05:00;24.73;;;5.63;;
1887;SDS011;944;51.574;6.980;2023-02-04T13:07:27;26.57;;;5.63;;
1887;SDS011;944;51.574;6.980;2023-02-04T13:09:57;32.40;;;5.73;;
1887;SDS011;944;51.574;6.980;2023-02-04T13:12:24;31.37;;;5.70;;
1887;SDS011;944;51.574;6.980;2023-02-04T13:14:51;34.40;;;5.30;;
1887;SDS011;944;51.574;6.980;2023-02-04T13:17:21;29.87;;;5.30;;
1887;SDS011;944;51.574;6.980;2023-02-04T13:19:48;32.97;;;5.33;;
1887;SDS011;944;51.574;6.980;2023-02-04T13:22:16;32.83;;;5.20;;
1887;SDS011;944;51.574;6.980;2023-02-04T13:24:43;30.03;;;4.47;;
1887;SDS011;944;51.574;6.980;2023-02-04T13:27:10;21.07;;;4.53;;
1887;SDS011;944;51.574;6.980;2023-02-04T13:29:37;30.07;;;4.73;;
1887;SDS011;944;51.574;6.980;2023-02-04T13:32:13;31.43;;;4.80;;
1887;SDS011;944;51.574;6.980;2023-02-04T13:34:47;21.07;;;5.00;;
1887;SDS011;944;51.574;6.980;2023-02-04T13:37:14;24.37;;;3.90;;
1887;SDS011;944;51.574;6.980;2023-02-04T13:39:44;27.87;;;4.37;;
1887;SDS011;944;51.574;6.980;2023-02-04T13:42:14;21.67;;;4.03;;
1887;SDS011;944;51.574;6.980;2023-02-04T13:44:41;22.40;;;4.43;;
1887;SDS011;944;51.574;6.980;2023-02-04T13:47:08;26.27;;;5.30;;
1887;SDS011;944;51.574;6.980;2023-02-04T13:49:35;24.43;;;4.20;;
1887;SDS011;944;51.574;6.980;2023-02-04T13:52:02;31.63;;;5.33;;
1887;SDS011;944;51.574;6.980;2023-02-04T13:54:29;19.63;;;3.90;;
1887;SDS011;944;51.574;6.980;2023-02-04T13:56:58;19.23;;;4.73;;
1887;SDS011;944;51.574;6.980;2023-02-04T13:59:24;18.03;;;4.00;;
1887;SDS011;944;51.574;6.980;2023-02-04T14:01:51;24.00;;;3.83;;
1887;SDS011;944;51.574;6.980;2023-02-04T14:04:28;18.03;;;3.90;;
1887;SDS011;944;51.574;6.980;2023-02-04T14:06:57;27.10;;;4.37;;
1887;SDS011;944;51.574;6.980;2023-02-04T14:09:25;29.90;;;4.63;;
1887;SDS011;944;51.574;6.980;2023-02-04T14:11:52;38.13;;;5.23;;
1887;SDS011;944;51.574;6.980;2023-02-04T14:14:20;34.47;;;5.60;;
1887;SDS011;944;51.574;6.980;2023-02-04T14:16:47;28.17;;;5.40;;
1887;SDS011;944;51.574;6.980;2023-02-04T14:19:14;35.60;;;5.70;;
1887;SDS011;944;51.574;6.980;2023-02-04T14:21:41;35.50;;;5.67;;
1887;SDS011;944;51.574;6.980;2023-02-04T14:24:08;34.00;;;5.20;;
1887;SDS011;944;51.574;6.980;2023-02-04T14:26:35;29.23;;;6.10;;
1887;SDS011;944;51.574;6.980;2023-02-04T14:29:02;31.23;;;6.70;;
1887;SDS011;944;51.574;6.980;2023-02-04T14:31:33;24.30;;;4.13;;
1887;SDS011;944;51.574;6.980;2023-02-04T14:34:01;35.53;;;5.90;;
1887;SDS011;944;51.574;6.980;2023-02-04T14:36:28;41.20;;;5.60;;
1887;SDS011;944;51.574;6.980;2023-02-04T14:38:56;23.10;;;4.80;;
1887;SDS011;944;51.574;6.980;2023-02-04T14:41:25;37.83;;;6.00;;
1887;SDS011;944;51.574;6.980;2023-02-04T14:43:54;25.80;;;5.13;;
1887;SDS011;944;51.574;6.980;2023-02-04T14:46:21;25.90;;;5.67;;
1887;SDS011;944;51.574;6.980;2023-02-04T14:48:52;20.23;;;4.40;;
1887;SDS011;944;51.574;6.980;2023-02-04T14:51:18;26.10;;;5.40;;
1887;SDS011;944;51.574;6.980;2023-02-04T14:53:48;31.37;;;5.37;;
1887;SDS011;944;51.574;6.980;2023-02-04T14:56:15;29.50;;;5.00;;
1887;SDS011;944;51.574;6.980;2023-02-04T14:58:43;25.47;;;4.17;;
1887;SDS011;944;51.574;6.980;2023-02-04T15:01:12;26.00;;;4.80;;
1887;SDS011;944;51.574;6.980;2023-02-04T15:03:39;22.83;;;4.50;;
1887;SDS011;944;51.574;6.980;2023-02-04T15:06:09;21.60;;;4.53;;
1887;SDS011;944;51.574;6.980;2023-02-04T15:08:38;17.20;;;3.33;;
1887;SDS011;944;51.574;6.980;2023-02-04T15:11:05;20.33;;;5.83;;
1887;SDS011;944;51.574;6.980;2023-02-04T15:13:32;18.80;;;4.07;;
1887;SDS011;944;51.574;6.980;2023-02-04T15:15:59;33.77;;;6.83;;
1887;SDS011;944;51.574;6.980;2023-02-04T15:18:26;24.83;;;5.40;;
1887;SDS011;944;51.574;6.980;2023-02-04T15:20:53;22.30;;;4.70;;
1887;SDS011;944;51.574;6.980;2023-02-04T15:23:22;26.27;;;5.60;;
1887;SDS011;944;51.574;6.980;2023-02-04T15:25:51;24.30;;;4.50;;
1887;SDS011;944;51.574;6.980;2023-02-04T15:28:21;27.23;;;4.13;;
1887;SDS011;944;51.574;6.980;2023-02-04T15:30:48;21.07;;;3.90;;
1887;SDS011;944;51.574;6.980;2023-02-04T15:33:17;18.77;;;3.50;;
1887;SDS011;944;51.574;6.980;2023-02-04T15:35:45;21.67;;;4.13;;
1887;SDS011;944;51.574;6.980;2023-02-04T15:38:13;22.37;;;4.40;;
1887;SDS011;944;51.574;6.980;2023-02-04T15:40:49;23.97;;;6.13;;
1887;SDS011;944;51.574;6.980;2023-02-04T15:43:20;27.13;;;5.17;;
1887;SDS011;944;51.574;6.980;2023-02-04T15:45:48;28.47;;;3.90;;
1887;SDS011;944;51.574;6.980;2023-02-04T15:48:15;21.90;;;3.83;;
1887;SDS011;944;51.574;6.980;2023-02-04T15:50:45;26.87;;;4.30;;
1887;SDS011;944;51.574;6.980;2023-02-04T15:53:12;23.87;;;3.87;;
1887;SDS011;944;51.574;6.980;2023-02-04T15:55:39;27.67;;;4.30;;
1887;SDS011;944;51.574;6.980;2023-02-04T15:58:07;19.33;;;3.60;;
1887;SDS011;944;51.574;6.980;2023-02-04T16:00:37;28.20;;;4.83;;
1887;SDS011;944;51.574;6.980;2023-02-04T16:03:05;23.57;;;4.50;;
1887;SDS011;944;51.574;6.980;2023-02-04T16:05:32;21.93;;;4.50;;
1887;SDS011;944;51.574;6.980;2023-02-04T16:07:59;17.87;;;4.20;;
1887;SDS011;944;51.574;6.980;2023-02-04T16:10:26;33.37;;;5.13;;
1887;SDS011;944;51.574;6.980;2023-02-04T16:12:53;31.83;;;4.63;;
1887;SDS011;944;51.574;6.980;2023-02-04T16:15:24;23.43;;;4.37;;
1887;SDS011;944;51.574;6.980;2023-02-04T16:17:54;22.80;;;4.90;;
1887;SDS011;944;51.574;6.980;2023-02-04T16:20:21;27.23;;;5.43;;
1887;SDS011;944;51.574;6.980;2023-02-04T16:22:51;27.03;;;5.17;;
1887;SDS011;944;51.574;6.980;2023-02-04T16:25:18;24.17;;;5.43;;
1887;SDS011;944;51.574;6.980;2023-02-04T16:27:45;22.37;;;5.57;;
1887;SDS011;944;51.574;6.980;2023-02-04T16:30:12;27.27;;;4.80;;
1887;SDS011;944;51.574;6.980;2023-02-04T16:32:41;27.63;;;6.00;;
1887;SDS011;944;51.574;6.980;2023-02-04T16:35:08;24.27;;;6.27;;